Time;durP1;ratioP1;P1;durP2;ratioP2;P2;SDS_P1;SDS_P2;PMS_P1;PMS_P2;Temp;Humidity;BMP_temperature;BMP_pressure;BME280_temperature;BME280_humidity;BME280_pressure;Samples;Min_cycle;Max_cycle;Signal;HPM_P1;HPM_P2
2022/07/20 00:00:27;;;;;;;6.95;4.13;;;;;;;;;;5126901;27;20552;-80
2022/07/20 00:02:53;;;;;;;7.60;4.63;;;;;;;;;;5128032;27;20470;-81
2022/07/20 00:05:19;;;;;;;12.38;4.65;;;;;;;;;;5124961;27;20553;-80
2022/07/20 00:07:45;;;;;;;20.95;6.22;;;;;;;;;;5121157;27;21526;-81
2022/07/20 00:12:56;;;;;;;9.30;4.75;;;;;;;;;;5127336;27;20071;-80
2022/07/20 00:15:22;;;;;;;10.50;5.50;;;;;;;;;;5123639;27;20035;-80
2022/07/20 00:17:48;;;;;;;11.32;4.38;;;;;;;;;;5128065;27;20513;-80
2022/07/20 00:20:14;;;;;;;13.10;3.88;;;;;;;;;;5128149;27;20558;-80
2022/07/20 00:22:40;;;;;;;7.25;4.38;;;;;;;;;;5123901;27;20100;-80
2022/07/20 00:25:07;;;;;;;7.40;4.22;;;;;;;;;;5126505;27;20035;-80
2022/07/20 00:27:34;;;;;;;10.60;4.07;;;;;;;;;;5126945;27;20055;-80
2022/07/20 00:30:00;;;;;;;7.75;4.18;;;;;;;;;;5110344;27;20054;-80
2022/07/20 00:32:26;;;;;;;7.78;4.43;;;;;;;;;;5110158;27;20086;-80
2022/07/20 00:34:52;;;;;;;9.85;3.65;;;;;;;;;;5124720;27;20091;-80
2022/07/20 00:37:18;;;;;;;8.10;4.93;;;;;;;;;;5127053;27;20123;-80
2022/07/20 00:39:44;;;;;;;7.50;4.43;;;;;;;;;;5127025;27;20050;-80
2022/07/20 00:42:10;;;;;;;7.65;4.20;;;;;;;;;;5124875;27;20092;-80
2022/07/20 00:44:36;;;;;;;7.75;4.18;;;;;;;;;;5127721;27;20036;-80
2022/07/20 00:47:02;;;;;;;8.15;4.22;;;;;;;;;;5108906;27;20552;-80
2022/07/20 00:49:29;;;;;;;6.43;4.05;;;;;;;;;;5128020;27;20055;-80
2022/07/20 00:51:55;;;;;;;8.70;4.53;;;;;;;;;;5108701;27;20043;-80
2022/07/20 00:54:21;;;;;;;12.73;4.97;;;;;;;;;;5125801;27;20039;-80
2022/07/20 00:56:47;;;;;;;7.93;4.55;;;;;;;;;;5123990;27;20104;-79
2022/07/20 00:59:13;;;;;;;12.20;4.30;;;;;;;;;;5124951;27;20533;-80
2022/07/20 01:01:39;;;;;;;7.55;4.68;;;;;;;;;;5126083;27;20047;-80
2022/07/20 01:04:06;;;;;;;8.15;4.50;;;;;;;;;;5127236;27;20072;-80
2022/07/20 01:06:32;;;;;;;7.03;4.65;;;;;;;;;;5108760;27;20512;-80
2022/07/20 01:08:58;;;;;;;11.07;4.35;;;;;;;;;;5124696;27;20055;-80
2022/07/20 01:11:24;;;;;;;9.40;4.75;;;;;;;;;;5124482;27;20039;-80
2022/07/20 01:13:50;;;;;;;12.85;5.15;;;;;;;;;;5127026;27;20517;-80
2022/07/20 01:16:17;;;;;;;11.48;5.57;;;;;;;;;;5109420;27;20067;-80
2022/07/20 01:18:43;;;;;;;6.40;3.33;;;;;;;;;;5127010;27;20043;-79
2022/07/20 01:21:10;;;;;;;7.22;4.22;;;;;;;;;;5124076;27;20096;-80
2022/07/20 01:23:36;;;;;;;8.98;3.75;;;;;;;;;;5126006;27;20129;-80
2022/07/20 01:26:03;;;;;;;11.15;3.72;;;;;;;;;;5123792;27;24235;-80
2022/07/20 01:28:29;;;;;;;5.97;3.15;;;;;;;;;;5126961;27;20124;-80
2022/07/20 01:30:56;;;;;;;7.25;3.13;;;;;;;;;;5125379;27;20521;-80
2022/07/20 01:33:22;;;;;;;3.90;2.67;;;;;;;;;;5110123;27;20028;-80
2022/07/20 01:35:48;;;;;;;4.63;2.83;;;;;;;;;;5128957;27;20119;-81
2022/07/20 01:38:14;;;;;;;6.50;3.50;;;;;;;;;;5128273;27;20039;-81
2022/07/20 01:40:40;;;;;;;9.38;3.20;;;;;;;;;;5127335;27;20100;-80
2022/07/20 01:43:06;;;;;;;8.15;3.22;;;;;;;;;;5124590;27;20032;-80
2022/07/20 01:45:33;;;;;;;9.82;3.08;;;;;;;;;;5127355;27;20096;-80
2022/07/20 01:47:59;;;;;;;5.82;3.08;;;;;;;;;;5126427;27;20104;-79
2022/07/20 01:50:25;;;;;;;7.25;2.60;;;;;;;;;;5124198;27;20047;-80
2022/07/20 01:52:51;;;;;;;6.85;2.83;;;;;;;;;;5126475;27;20520;-79
2022/07/20 01:55:17;;;;;;;7.85;3.33;;;;;;;;;;5125251;27;20131;-80
2022/07/20 01:57:44;;;;;;;18.23;3.42;;;;;;;;;;5124715;27;20051;-80
2022/07/20 02:00:12;;;;;;;5.68;3.30;;;;;;;;;;5107440;27;20047;-80
2022/07/20 02:02:38;;;;;;;6.90;3.47;;;;;;;;;;5125668;27;20588;-80
2022/07/20 02:05:04;;;;;;;10.25;3.00;;;;;;;;;;5124352;27;20824;-80
2022/07/20 02:07:30;;;;;;;6.45;2.78;;;;;;;;;;5124294;27;20050;-80
2022/07/20 02:09:57;;;;;;;7.65;3.67;;;;;;;;;;5124038;27;20638;-80
2022/07/20 02:12:23;;;;;;;9.85;3.63;;;;;;;;;;5108133;27;20051;-80
2022/07/20 02:14:49;;;;;;;9.85;2.50;;;;;;;;;;5127581;27;20047;-80
2022/07/20 02:17:15;;;;;;;8.40;3.35;;;;;;;;;;5123774;27;20558;-80
2022/07/20 02:19:41;;;;;;;8.88;3.38;;;;;;;;;;5124639;27;20036;-80
2022/07/20 02:22:07;;;;;;;11.55;4.30;;;;;;;;;;5123920;27;20459;-80
2022/07/20 02:24:33;;;;;;;8.13;3.13;;;;;;;;;;5125945;27;20105;-80
2022/07/20 02:26:59;;;;;;;11.30;4.32;;;;;;;;;;5123448;27;20125;-80
2022/07/20 02:29:25;;;;;;;6.82;3.40;;;;;;;;;;5123742;27;20039;-80
2022/07/20 02:31:52;;;;;;;12.55;4.13;;;;;;;;;;5108540;27;20042;-80
2022/07/20 02:34:17;;;;;;;11.23;3.83;;;30.30;77.10;;;;;;5122816;27;20096;-80
2022/07/20 02:36:43;;;;;;;9.00;3.08;;;25.10;92.20;;;;;;5123770;27;20490;-80
2022/07/20 02:39:09;;;;;;;11.13;3.67;;;24.60;92.50;;;;;;5123439;27;20124;-81
2022/07/20 02:41:35;;;;;;;5.53;3.13;;;24.40;92.90;;;;;;5122884;27;20521;-80
2022/07/20 02:44:01;;;;;;;11.88;2.85;;;24.10;93.30;;;;;;5122012;27;20043;-80
2022/07/20 02:46:27;;;;;;;6.15;3.22;;;24.00;93.80;;;;;;5120825;27;20499;-80
2022/07/20 02:48:53;;;;;;;7.78;2.90;;;23.80;94.30;;;;;;5125507;27;20043;-80
2022/07/20 02:51:18;;;;;;;13.30;4.10;;;23.80;94.90;;;;;;5122004;27;20847;-80
2022/07/20 02:53:44;;;;;;;5.45;3.00;;;23.80;95.30;;;;;;5123681;27;20069;-80
2022/07/20 02:56:10;;;;;;;5.90;2.85;;;23.80;95.60;;;;;;5125001;27;20424;-80
2022/07/20 02:58:37;;;;;;;12.38;4.05;;;23.90;95.80;;;;;;5125431;27;20120;-80
2022/07/20 03:01:03;;;;;;;11.57;3.05;;;23.90;96.00;;;;;;5124685;27;20518;-80
2022/07/20 03:03:28;;;;;;;7.30;2.90;;;23.90;96.20;;;;;;5124637;27;20047;-80
2022/07/20 03:05:54;;;;;;;6.10;4.30;;;23.90;96.40;;;;;;5123672;27;20094;-80
2022/07/20 03:08:20;;;;;;;6.13;2.85;;;23.90;96.50;;;;;;5122247;27;20535;-80
2022/07/20 03:10:46;;;;;;;14.93;4.40;;;23.80;96.70;;;;;;5122395;27;20042;-80
2022/07/20 03:13:11;;;;;;;10.30;4.05;;;23.80;96.80;;;;;;5123374;27;20040;-80
2022/07/20 03:15:37;;;;;;;8.88;2.83;;;23.90;96.90;;;;;;5121835;27;20054;-80
2022/07/20 03:18:03;;;;;;;6.85;2.70;;;23.80;97.00;;;;;;5124321;27;20043;-81
2022/07/20 03:20:32;;;;;;;8.23;3.83;;;23.80;97.50;;;;;;5126704;27;20043;-80
2022/07/20 03:22:59;;;;;;;8.95;3.70;;;23.80;97.30;;;;;;5112428;27;20042;-81
2022/07/20 03:25:25;;;;;;;10.80;3.78;;;23.90;97.40;;;;;;5125599;27;20492;-80
2022/07/20 03:27:55;;;;;;;7.53;3.05;;;23.90;97.50;;;;;;5124636;27;20039;-80
2022/07/20 03:30:23;;;;;;;9.57;4.40;;;23.90;97.60;;;;;;5126401;27;20035;-80
2022/07/20 03:32:49;;;;;;;12.30;4.35;;;23.90;97.70;;;;;;5126939;27;20096;-81
2022/07/20 03:35:15;;;;;;;8.55;3.90;;;23.80;97.60;;;;;;5126701;27;20122;-80
2022/07/20 03:37:41;;;;;;;8.63;3.65;;;23.80;97.80;;;;;;5124329;27;20694;-81
2022/07/20 03:40:07;;;;;;;8.15;4.15;;;23.80;97.90;;;;;;5128768;27;20039;-81
2022/07/20 03:42:34;;;;;;;9.98;4.03;;;23.80;97.90;;;;;;5125961;27;20043;-81
2022/07/20 03:45:00;;;;;;;9.07;3.60;;;23.70;98.00;;;;;;5126786;27;20505;-81
2022/07/20 03:47:26;;;;;;;11.73;3.83;;;23.70;98.10;;;;;;5126871;27;20046;-81
2022/07/20 03:49:52;;;;;;;11.63;3.58;;;23.70;98.30;;;;;;5109673;27;20169;-81
2022/07/20 03:52:19;;;;;;;8.05;3.70;;;23.70;98.30;;;;;;5127353;27;20124;-81
2022/07/20 03:54:44;;;;;;;9.90;4.10;;;23.70;98.30;;;;;;5126535;27;20043;-81
2022/07/20 03:57:11;;;;;;;13.18;3.58;;;23.70;98.30;;;;;;5126163;27;20039;-81
2022/07/20 03:59:37;;;;;;;13.25;4.13;;;23.70;98.30;;;;;;5128693;27;20060;-81
2022/07/20 04:02:03;;;;;;;10.68;4.70;;;23.70;98.40;;;;;;5126517;27;20039;-81
2022/07/20 04:04:29;;;;;;;8.93;3.28;;;23.70;98.50;;;;;;5127434;27;20044;-81
2022/07/20 04:06:56;;;;;;;9.18;3.80;;;23.60;98.50;;;;;;5127241;27;20044;-81
2022/07/20 04:12:07;;;;;;;10.15;3.80;;;23.60;98.70;;;;;;5126457;27;20093;-80
2022/07/20 04:14:33;;;;;;;6.90;2.80;;;23.60;98.80;;;;;;5131345;27;20082;-80
2022/07/20 04:17:00;;;;;;;5.50;3.35;;;23.60;98.80;;;;;;5129574;27;20035;-80
2022/07/20 04:19:26;;;;;;;7.40;4.10;;;23.60;98.90;;;;;;5130844;27;20127;-80
2022/07/20 04:21:56;;;;;;;7.13;3.70;;;23.60;99.00;;;;;;5132583;27;20070;-80
2022/07/20 04:24:23;;;;;;;7.82;3.75;;;23.50;99.10;;;;;;5129853;27;20403;-81
2022/07/20 04:26:49;;;;;;;7.85;4.07;;;23.50;99.40;;;;;;5129817;27;20063;-81
2022/07/20 04:29:15;;;;;;;10.85;3.25;;;23.50;99.60;;;;;;5130058;27;20787;-80
2022/07/20 04:31:40;;;;;;;7.18;3.85;;;23.40;99.80;;;;;;5129289;27;20048;-80
2022/07/20 04:34:06;;;;;;;8.35;3.40;;;23.40;99.90;;;;;;5129794;27;20410;-81
2022/07/20 04:36:32;;;;;;;6.53;3.45;;;23.30;99.90;;;;;;5128652;27;20472;-80
2022/07/20 04:38:58;;;;;;;9.57;4.78;;;23.30;99.90;;;;;;5130563;27;20123;-81
2022/07/20 04:41:24;;;;;;;8.65;2.95;;;23.30;99.90;;;;;;5129191;27;20506;-80
2022/07/20 04:43:49;;;;;;;11.45;3.42;;;23.30;99.90;;;;;;5130443;27;20820;-81
2022/07/20 04:46:16;;;;;;;11.65;3.63;;;23.30;99.90;;;;;;5131162;27;20044;-81
2022/07/20 04:48:42;;;;;;;12.32;4.13;;;23.30;99.90;;;;;;5113507;27;20230;-81
2022/07/20 04:51:07;;;;;;;6.28;3.47;;;23.30;99.90;;;;;;5131086;27;20047;-81
2022/07/20 04:53:33;;;;;;;6.22;3.67;;;23.30;99.90;;;;;;5129387;27;20410;-81
2022/07/20 04:55:59;;;;;;;7.32;3.28;;;23.20;99.90;;;;;;5127988;27;20055;-81
2022/07/20 04:58:24;;;;;;;9.43;3.58;;;23.20;99.90;;;;;;5130170;27;20043;-81
2022/07/20 05:00:50;;;;;;;9.10;3.40;;;23.20;99.90;;;;;;5131438;27;20043;-81
2022/07/20 05:03:16;;;;;;;8.70;4.07;;;23.20;99.90;;;;;;5128702;27;20047;-81
2022/07/20 05:05:42;;;;;;;9.60;3.75;;;23.20;99.90;;;;;;5131842;27;20131;-81
2022/07/20 05:08:07;;;;;;;8.35;3.55;;;23.20;99.90;;;;;;5131473;27;20525;-81
2022/07/20 05:10:34;;;;;;;4.95;3.28;;;23.20;99.90;;;;;;5127423;27;20127;-81
2022/07/20 05:13:00;;;;;;;9.70;3.20;;;23.20;99.90;;;;;;5129505;27;20046;-81
2022/07/20 05:15:26;;;;;;;6.57;3.35;;;23.20;99.90;;;;;;5140939;27;20035;-81
2022/07/20 05:17:52;;;;;;;9.25;4.65;;;23.20;99.90;;;;;;5126719;27;20043;-81
2022/07/20 05:20:18;;;;;;;5.57;2.90;;;23.20;99.90;;;;;;5125103;27;20031;-81
2022/07/20 05:22:45;;;;;;;6.57;3.95;;;23.30;99.90;;;;;;5126007;27;20039;-81
2022/07/20 05:25:11;;;;;;;9.68;3.42;;;23.40;99.90;;;;;;5127017;27;20045;-81
2022/07/20 05:27:37;;;;;;;9.18;3.45;;;23.40;99.90;;;;;;5123640;27;20050;-81
2022/07/20 05:30:04;;;;;;;7.70;3.10;;;23.50;99.90;;;;;;5124923;27;20053;-81
2022/07/20 05:32:30;;;;;;;9.45;3.45;;;23.50;99.90;;;;;;5107229;27;20039;-81
2022/07/20 05:34:56;;;;;;;6.55;3.22;;;23.50;99.90;;;;;;5126523;27;20035;-81
2022/07/20 05:37:22;;;;;;;7.03;3.10;;;23.50;99.90;;;;;;5124207;27;20046;-81
2022/07/20 05:39:47;;;;;;;9.18;3.88;;;23.60;99.90;;;;;;5127617;27;20089;-81
2022/07/20 05:42:13;;;;;;;8.15;3.22;;;23.60;99.90;;;;;;5123755;27;20082;-81
2022/07/20 05:44:39;;;;;;;8.95;3.67;;;23.60;99.90;;;;;;5123741;27;20051;-81
2022/07/20 05:47:06;;;;;;;7.03;3.13;;;23.60;99.90;;;;;;5124959;27;20566;-81
2022/07/20 05:49:33;;;;;;;7.90;3.65;;;23.70;99.90;;;;;;5122619;27;20067;-80
2022/07/20 05:51:59;;;;;;;5.88;3.20;;;23.70;99.90;;;;;;5127342;27;20063;-81
2022/07/20 05:54:25;;;;;;;10.85;4.60;;;23.60;99.90;;;;;;5126387;27;20043;-81
2022/07/20 05:56:51;;;;;;;6.78;3.70;;;23.60;99.90;;;;;;5124474;27;20035;-81
2022/07/20 05:59:17;;;;;;;8.07;3.65;;;23.60;99.90;;;;;;5124962;27;20043;-81
2022/07/20 06:01:44;;;;;;;10.40;4.53;;;23.60;99.90;;;;;;5124195;27;20055;-81
2022/07/20 06:04:12;;;;;;;6.85;3.58;;;23.50;99.90;;;;;;5126277;27;20632;-81
2022/07/20 06:06:37;;;;;;;10.32;3.65;;;23.50;99.90;;;;;;5123797;27;20138;-81
2022/07/20 06:09:04;;;;;;;10.18;3.58;;;23.40;99.90;;;;;;5125136;27;20160;-81
2022/07/20 06:11:31;;;;;;;10.23;3.88;;;23.40;99.90;;;;;;5109455;27;20043;-81
2022/07/20 06:13:56;;;;;;;10.90;3.95;;;23.40;99.90;;;;;;5123711;27;20352;-81
2022/07/20 06:16:22;;;;;;;9.48;3.78;;;23.40;99.90;;;;;;5126770;27;20039;-81
2022/07/20 06:18:48;;;;;;;8.02;4.25;;;23.40;99.90;;;;;;5124123;27;20527;-81
2022/07/20 06:21:14;;;;;;;9.43;4.25;;;23.40;99.90;;;;;;5123107;27;20582;-81
2022/07/20 06:23:41;;;;;;;9.35;3.78;;;23.40;99.90;;;;;;5126236;27;20656;-81
2022/07/20 06:26:07;;;;;;;8.88;4.43;;;23.40;99.90;;;;;;5123203;27;20529;-81
2022/07/20 06:28:33;;;;;;;14.00;4.60;;;23.40;99.90;;;;;;5124765;27;20048;-81
2022/07/20 06:30:59;;;;;;;7.13;3.58;;;23.40;99.90;;;;;;5122725;27;20452;-81
2022/07/20 06:33:25;;;;;;;10.35;4.72;;;23.40;99.90;;;;;;5124343;27;20085;-81
2022/07/20 06:35:51;;;;;;;8.68;4.25;;;23.40;99.90;;;;;;5125806;27;20040;-81
2022/07/20 06:38:17;;;;;;;8.52;4.40;;;23.30;99.90;;;;;;5122920;27;20108;-81
2022/07/20 06:40:42;;;;;;;8.50;4.18;;;23.30;99.90;;;;;;5123710;27;20039;-80
2022/07/20 06:43:08;;;;;;;6.78;3.90;;;23.30;99.90;;;;;;5124280;27;20474;-80
2022/07/20 06:45:34;;;;;;;9.27;4.50;;;23.40;99.90;;;;;;5107998;27;20542;-80
2022/07/20 06:48:00;;;;;;;14.70;5.28;;;23.40;99.90;;;;;;5125203;27;20043;-81
2022/07/20 06:50:26;;;;;;;9.30;4.70;;;23.50;99.90;;;;;;5124107;27;20044;-80
2022/07/20 06:52:51;;;;;;;8.65;4.60;;;23.50;99.90;;;;;;5126133;27;20130;-80
2022/07/20 06:55:17;;;;;;;10.73;4.35;;;23.50;99.90;;;;;;5125396;27;20042;-80
2022/07/20 06:57:44;;;;;;;7.28;4.80;;;23.50;99.90;;;;;;5127279;27;20044;-81
2022/07/20 07:00:12;;;;;;;15.55;5.45;;;23.50;99.90;;;;;;5128300;27;20056;-80
2022/07/20 07:02:38;;;;;;;10.65;5.47;;;23.60;99.90;;;;;;5128245;27;20437;-80
2022/07/20 07:05:04;;;;;;;10.02;4.60;;;23.70;99.90;;;;;;5126178;27;20044;-81
2022/07/20 07:07:30;;;;;;;9.02;5.13;;;23.70;99.90;;;;;;5125437;27;20058;-80
2022/07/20 07:09:56;;;;;;;10.82;5.13;;;23.80;99.90;;;;;;5127960;27;20143;-80
2022/07/20 07:12:22;;;;;;;9.38;4.97;;;23.90;99.90;;;;;;5126870;27;20539;-80
2022/07/20 07:14:48;;;;;;;9.55;4.97;;;23.90;99.90;;;;;;5130192;27;20723;-80
2022/07/20 07:17:14;;;;;;;11.02;6.10;;;23.80;99.90;;;;;;5127365;27;20074;-81
2022/07/20 07:19:40;;;;;;;10.27;5.75;;;23.80;99.90;;;;;;5126192;27;20598;-80
2022/07/20 07:22:06;;;;;;;11.35;6.35;;;23.90;99.90;;;;;;5127844;27;20047;-80
2022/07/20 07:24:32;;;;;;;16.67;6.88;;;23.80;99.90;;;;;;5129037;27;20039;-80
2022/07/20 07:26:58;;;;;;;10.90;5.90;;;23.90;99.90;;;;;;5129715;27;20424;-81
2022/07/20 07:29:25;;;;;;;16.20;7.15;;;23.90;99.90;;;;;;5126655;27;20111;-80
2022/07/20 07:31:51;;;;;;;12.50;7.00;;;23.90;99.90;;;;;;5127158;27;20043;-80
2022/07/20 07:34:16;;;;;;;14.55;7.75;;;23.90;99.90;;;;;;5125396;27;20505;-81
2022/07/20 07:36:42;;;;;;;21.75;8.32;;;24.00;99.90;;;;;;5126832;27;20050;-80
2022/07/20 07:39:08;;;;;;;16.52;8.10;;;24.00;99.90;;;;;;5127000;27;20074;-80
2022/07/20 07:41:34;;;;;;;12.73;6.95;;;24.00;99.90;;;;;;5126931;27;20055;-81
2022/07/20 07:44:00;;;;;;;12.50;8.05;;;24.00;99.90;;;;;;5127311;27;20036;-81
2022/07/20 07:46:26;;;;;;;19.52;7.95;;;24.00;99.90;;;;;;5126815;27;20066;-81
2022/07/20 07:48:51;;;;;;;14.05;8.15;;;24.10;99.90;;;;;;5128888;27;20047;-81
2022/07/20 07:51:17;;;;;;;14.65;8.05;;;24.00;99.90;;;;;;5125606;27;20036;-81
2022/07/20 07:53:43;;;;;;;14.25;7.65;;;24.10;99.90;;;;;;5127686;27;20544;-81
2022/07/20 07:56:09;;;;;;;15.85;8.43;;;24.10;99.90;;;;;;5128375;27;20044;-81
2022/07/20 07:58:35;;;;;;;14.63;7.93;;;24.10;99.90;;;;;;5125513;27;20047;-80
2022/07/20 08:01:01;;;;;;;12.15;6.80;;;24.10;99.90;;;;;;5127187;27;20036;-81
2022/07/20 08:03:26;;;;;;;11.80;6.40;;;24.00;99.90;;;;;;5126307;27;20044;-80
2022/07/20 08:05:52;;;;;;;14.10;7.32;;;23.90;99.90;;;;;;5126711;27;20576;-81
2022/07/20 08:08:18;;;;;;;12.98;7.15;;;23.90;99.90;;;;;;5126398;27;20433;-80
2022/07/20 08:10:44;;;;;;;12.65;6.68;;;23.80;99.90;;;;;;5126930;27;20047;-81
2022/07/20 08:13:10;;;;;;;14.85;6.72;;;23.90;99.90;;;;;;5124996;27;20075;-80
2022/07/20 08:15:37;;;;;;;18.38;7.45;;;23.80;99.90;;;;;;5126466;27;20039;-81
2022/07/20 08:18:03;;;;;;;11.20;6.10;;;23.70;99.90;;;;;;5127634;27;20456;-80
2022/07/20 08:20:30;;;;;;;12.63;6.05;;;23.70;99.90;;;;;;5126392;27;20110;-80
2022/07/20 08:22:56;;;;;;;14.05;7.85;;;23.70;99.90;;;;;;5123834;27;20860;-80
2022/07/20 08:25:22;;;;;;;15.57;6.70;;;23.80;99.90;;;;;;5125512;27;20337;-80
2022/07/20 08:27:48;;;;;;;11.77;6.25;;;23.80;99.90;;;;;;5123016;27;20048;-80
2022/07/20 08:30:15;;;;;;;12.88;6.60;;;23.90;99.90;;;;;;5123086;27;20039;-80
2022/07/20 08:32:41;;;;;;;14.23;6.15;;;24.00;99.90;;;;;;5126046;27;20046;-80
2022/07/20 08:35:07;;;;;;;12.43;5.57;;;24.00;99.90;;;;;;5127332;27;20074;-80
2022/07/20 08:37:33;;;;;;;12.30;4.35;;;24.10;99.90;;;;;;5127169;27;20048;-80
2022/07/20 08:39:59;;;;;;;9.15;4.60;;;24.10;99.90;;;;;;5126279;27;20453;-80
2022/07/20 08:42:25;;;;;;;13.00;4.88;;;24.20;99.90;;;;;;5124783;27;20131;-80
2022/07/20 08:44:50;;;;;;;11.70;6.00;;;24.20;99.90;;;;;;5125833;27;20050;-80
2022/07/20 08:47:17;;;;;;;9.43;5.13;;;24.20;99.90;;;;;;5126598;27;20078;-80
2022/07/20 08:49:48;;;;;;;9.55;5.13;;;24.20;99.90;;;;;;5126301;27;20070;-80
2022/07/20 08:52:14;;;;;;;12.80;5.45;;;24.20;99.90;;;;;;5126231;27;20134;-80
2022/07/20 08:54:40;;;;;;;7.60;4.50;;;24.20;99.90;;;;;;5125507;27;20432;-80
2022/07/20 08:57:11;;;;;;;9.85;4.88;;;24.10;99.90;;;;;;5124452;27;20130;-80
2022/07/20 08:59:37;;;;;;;9.23;4.20;;;24.00;99.90;;;;;;5123569;27;20131;-80
2022/07/20 09:02:07;;;;;;;9.80;4.60;;;23.90;99.90;;;;;;5127334;27;20059;-80
2022/07/20 09:04:52;;;;;;;11.13;4.63;;;23.90;99.90;;;;;;5126921;27;20576;-80
2022/07/20 09:07:45;;;;;;;7.65;3.83;;;23.90;99.90;;;;;;5126769;27;20039;-80
2022/07/20 09:10:17;;;;;;;10.50;4.25;;;24.00;99.90;;;;;;5108347;27;20200;-79
2022/07/20 09:12:59;;;;;;;12.45;4.68;;;24.10;99.90;;;;;;5128579;27;20524;-80
2022/07/20 09:15:36;;;;;;;8.40;4.18;;;24.20;99.90;;;;;;5126065;27;20039;-80
2022/07/20 09:18:05;;;;;;;4.78;3.47;;;24.30;99.90;;;;;;5125136;27;20151;-80
2022/07/20 09:20:32;;;;;;;7.10;3.70;;;24.40;99.90;;;;;;5124505;27;20093;-80
2022/07/20 09:23:03;;;;;;;10.35;4.03;;;24.40;99.90;;;;;;5126005;27;20039;-80
2022/07/20 09:25:29;;;;;;;12.40;4.68;;;24.40;99.90;;;;;;5124585;27;20040;-80
2022/07/20 09:27:56;;;;;;;7.45;3.90;;;24.50;99.90;;;;;;5122482;27;20048;-80
2022/07/20 09:30:22;;;;;;;9.75;4.15;;;24.60;99.90;;;;;;5125588;27;20050;-80
2022/07/20 09:33:03;;;;;;;7.78;3.20;;;24.70;99.90;;;;;;5123634;27;20036;-80
2022/07/20 09:35:32;;;;;;;12.77;3.20;;;24.90;99.90;;;;;;5123389;27;20536;-80
2022/07/20 09:38:03;;;;;;;7.15;3.88;;;24.80;99.90;;;;;;5125180;27;20040;-80
2022/07/20 09:40:39;;;;;;;12.27;5.63;;;24.90;99.90;;;;;;5124768;27;20031;-80
2022/07/20 09:43:05;;;;;;;6.45;3.85;;;25.00;99.90;;;;;;5123014;27;20050;-80
2022/07/20 09:45:32;;;;;;;9.45;4.13;;;25.10;99.90;;;;;;5126028;27;20082;-80
2022/07/20 09:48:09;;;;;;;10.75;4.57;;;25.10;99.90;;;;;;5127102;27;20511;-80
2022/07/20 09:50:44;;;;;;;10.93;4.50;;;25.10;99.90;;;;;;5121998;27;20101;-80
2022/07/20 09:53:11;;;;;;;8.70;3.90;;;24.90;99.90;;;;;;5123617;27;20031;-80
2022/07/20 09:55:38;;;;;;;8.07;4.07;;;24.80;99.90;;;;;;5123042;27;20065;-81
2022/07/20 09:58:05;;;;;;;10.02;3.90;;;24.80;99.90;;;;;;5123949;27;20035;-80
2022/07/20 10:00:32;;;;;;;6.28;3.85;;;24.70;99.90;;;;;;5124689;27;20031;-80
2022/07/20 10:02:59;;;;;;;9.20;3.95;;;24.70;99.90;;;;;;5125570;27;20532;-80
2022/07/20 10:05:30;;;;;;;9.80;4.43;;;24.70;99.90;;;;;;5126687;27;20464;-81
2022/07/20 10:07:58;;;;;;;7.13;3.80;;;24.80;99.90;;;;;;5124146;27;20043;-80
2022/07/20 10:10:24;;;;;;;8.60;4.30;;;24.80;99.90;;;;;;5124275;27;20127;-80
2022/07/20 10:12:49;;;;;;;6.90;3.30;;;24.90;99.90;;;;;;5127092;27;20058;-80
2022/07/20 10:15:21;;;;;;;4.68;3.10;;;24.80;99.90;;;;;;5125953;27;20690;-80
2022/07/20 10:17:47;;;;;;;7.65;3.40;;;24.90;99.90;;;;;;5126329;27;20043;-80
2022/07/20 10:20:34;;;;;;;7.63;3.22;;;25.00;99.90;;;;;;5126732;27;20054;-80
2022/07/20 10:23:14;;;;;;;7.55;4.38;;;25.10;99.90;;;;;;5127585;27;20373;-80
2022/07/20 10:25:41;;;;;;;7.63;3.65;;;25.10;99.90;;;;;;5108116;27;20092;-80
2022/07/20 10:28:34;;;;;;;6.95;3.60;;;25.10;99.90;;;;;;5108838;27;20625;-80
2022/07/20 10:31:06;;;;;;;7.45;3.95;;;25.10;99.90;;;;;;5128822;27;20051;-80
2022/07/20 10:33:34;;;;;;;8.85;3.85;;;25.20;99.90;;;;;;5129540;27;20039;-80
2022/07/20 10:39:58;;;;;;;7.90;3.67;;;25.70;99.90;;;;;;5130514;27;20047;-80
2022/07/20 10:42:37;;;;;;;6.97;3.53;;;25.70;99.90;;;;;;5064886;28;20037;-80
2022/07/20 10:45:27;;;;;;;7.07;3.65;;;25.70;99.90;;;;;;5067287;28;20050;-80
2022/07/20 10:48:13;;;;;;;6.45;3.40;;;25.80;99.90;;;;;;5095355;27;20543;-80
2022/07/20 10:50:40;;;;;;;8.85;4.18;;;25.70;99.90;;;;;;5130633;27;20130;-81
2022/07/20 10:53:14;;;;;;;6.68;3.25;;;25.60;99.90;;;;;;5129390;27;20347;-81
2022/07/20 10:55:47;;;;;;;10.13;4.00;;;25.50;99.90;;;;;;5131080;27;20031;-80
2022/07/20 10:58:16;;;;;;;7.63;4.07;;;25.50;99.90;;;;;;5127855;27;20035;-80
2022/07/20 11:00:44;;;;;;;7.15;3.58;;;25.30;99.90;;;;;;5128481;27;20458;-80
2022/07/20 11:03:29;;;;;;;5.40;3.25;;;25.20;99.90;;;;;;5127682;27;20067;-80
2022/07/20 11:06:03;;;;;;;5.78;3.47;;;25.40;99.90;;;;;;5146730;27;20036;-80
2022/07/20 11:08:29;;;;;;;5.57;3.33;;;25.70;99.90;;;;;;5127483;27;20052;-80
2022/07/20 11:10:55;;;;;;;6.43;3.00;;;26.00;99.90;;;;;;5130429;27;20041;-80
2022/07/20 11:13:22;;;;;;;6.28;3.83;;;26.20;99.90;;;;;;5128474;27;20043;-81
2022/07/20 11:15:50;;;;;;;7.07;2.72;;;26.30;99.90;;;;;;5125806;27;20867;-80
2022/07/20 11:18:23;;;;;;;7.13;4.03;;;26.30;99.90;;;;;;5126300;27;20054;-80
2022/07/20 11:20:54;;;;;;;6.00;2.88;;;26.40;99.90;;;;;;5123899;27;20047;-80
2022/07/20 11:23:23;;;;;;;6.38;3.80;;;26.50;99.90;;;;;;5126782;27;21617;-80
2022/07/20 11:25:56;;;;;;;9.65;4.28;;;26.60;99.90;;;;;;5125489;27;20052;-80
2022/07/20 11:28:24;;;;;;;5.95;3.63;;;26.70;99.90;;;;;;5129803;27;20581;-81
2022/07/20 11:30:52;;;;;;;6.82;3.53;;;26.70;99.90;;;;;;5127357;27;20075;-80
2022/07/20 11:33:32;;;;;;;8.25;3.65;;;26.60;99.90;;;;;;5128435;27;20143;-80
2022/07/20 11:36:07;;;;;;;8.15;3.53;;;26.40;99.90;;;;;;5130644;27;20096;-81
2022/07/20 11:38:37;;;;;;;6.97;3.70;;;26.30;99.90;;;;;;5130684;27;20043;-80
2022/07/20 11:41:05;;;;;;;6.82;3.85;;;26.40;99.90;;;;;;5127139;27;20066;-81
2022/07/20 11:43:31;;;;;;;5.97;3.95;;;26.50;99.90;;;;;;5128249;27;20124;-81
2022/07/20 11:46:23;;;;;;;7.45;4.00;;;26.70;99.90;;;;;;5128686;27;20044;-81
2022/07/20 11:48:58;;;;;;;7.90;4.07;;;26.80;99.90;;;;;;5126142;27;20058;-80
2022/07/20 11:51:25;;;;;;;6.35;3.40;;;26.90;99.90;;;;;;5125635;27;20063;-81
2022/07/20 11:53:51;;;;;;;5.85;3.05;;;27.00;99.90;;;;;;5128836;27;20116;-81
2022/07/20 11:56:23;;;;;;;5.57;4.03;;;27.10;99.90;;;;;;5127336;27;20111;-80
2022/07/20 11:58:52;;;;;;;6.90;3.67;;;27.10;99.90;;;;;;5127819;27;21082;-80
2022/07/20 12:01:25;;;;;;;9.70;3.67;;;27.10;99.90;;;;;;5128049;27;20046;-81
2022/07/20 12:03:54;;;;;;;6.78;3.30;;;27.20;99.90;;;;;;5126845;27;20124;-81
2022/07/20 12:06:20;;;;;;;8.43;3.40;;;27.20;99.90;;;;;;5125214;27;20046;-80
2022/07/20 12:09:01;;;;;;;8.90;3.60;;;27.20;99.90;;;;;;5122867;27;20521;-80
2022/07/20 12:11:26;;;;;;;6.43;3.92;;;27.10;99.90;;;;;;5126759;27;20088;-80
2022/07/20 12:13:52;;;;;;;5.57;2.97;;;27.20;99.90;;;;;;5127335;27;20466;-80
2022/07/20 12:16:18;;;;;;;7.00;3.85;;;27.30;99.90;;;;;;5127532;27;20056;-80
2022/07/20 12:18:45;;;;;;;7.53;3.80;;;27.40;99.90;;;;;;5128613;27;20050;-80
2022/07/20 12:21:24;;;;;;;6.95;3.30;;;27.40;99.90;;;;;;5127516;27;20051;-80
2022/07/20 12:23:52;;;;;;;6.03;2.95;;;27.40;99.90;;;;;;5126898;27;20758;-80
2022/07/20 12:26:23;;;;;;;5.97;3.55;;;27.60;99.90;;;;;;5127790;27;20132;-81
2022/07/20 12:28:49;;;;;;;8.82;3.08;;;27.70;99.90;;;;;;5127303;27;20151;-80
2022/07/20 12:31:20;;;;;;;8.27;3.78;;;27.80;99.90;;;;;;5126631;27;20042;-80
2022/07/20 12:34:21;;;;;;;6.10;2.78;;;27.70;99.90;;;;;;5127450;27;20440;-80
2022/07/20 12:36:48;;;;;;;8.13;4.10;;;27.50;99.90;;;;;;5045983;28;20501;-80
2022/07/20 12:39:34;;;;;;;8.73;4.10;;;27.20;99.90;;;;;;5111821;27;20055;-80
2022/07/20 12:42:12;;;;;;;10.55;4.13;;;26.90;99.90;;;;;;5128689;27;20399;-80
2022/07/20 12:44:39;;;;;;;11.45;4.53;;;26.60;99.90;;;;;;5127916;27;20346;-79
2022/07/20 12:47:05;;;;;;;7.57;4.80;;;26.10;99.90;;;;;;5128800;27;20035;-79
2022/07/20 12:49:32;;;;;;;8.77;4.22;;;25.60;99.90;;;;;;5125951;27;20569;-79
2022/07/20 12:51:58;;;;;;;10.02;4.45;;;25.30;99.90;;;;;;5126288;27;20043;-79
2022/07/20 12:54:24;;;;;;;9.23;3.85;;;25.00;99.90;;;;;;5126416;27;20027;-79
2022/07/20 12:56:51;;;;;;;5.50;3.42;;;24.80;99.90;;;;;;5127790;27;22063;-80
2022/07/20 12:59:18;;;;;;;5.22;3.50;;;;;;;;;;5127562;27;20040;-79
2022/07/20 13:01:48;;;;;;;4.00;3.17;;;;;;;;;;5126368;27;20126;-79
2022/07/20 13:04:15;;;;;;;3.83;2.50;;;;;;;;;;5111014;27;20465;-79
2022/07/20 13:06:43;;;;;;;4.38;2.95;;;;;;;;;;5126281;27;20035;-80
2022/07/20 13:09:10;;;;;;;4.47;2.00;;;;;;;;;;5126730;27;20171;-80
2022/07/20 13:11:38;;;;;;;4.43;2.08;;;;;;;;;;5124950;27;20107;-80
2022/07/20 13:14:04;;;;;;;5.32;2.30;;;;;;;;;;5126051;27;20131;-80
2022/07/20 13:16:30;;;;;;;4.82;2.00;;;;;;;;;;5126151;27;20032;-80
2022/07/20 13:18:56;;;;;;;5.97;2.95;;;;;;;;;;5128027;27;20971;-80